createdAt,value
2018-12-21T00:03:57.757Z,4.50
2018-12-21T00:08:47.801Z,4.50
2018-12-21T00:13:35.401Z,4.60
2018-12-21T00:18:29.010Z,4.70
2018-12-21T00:23:20.058Z,4.90
2018-12-21T00:28:07.166Z,4.90
2018-12-21T00:32:59.501Z,5.00
2018-12-21T00:38:01.024Z,5.10
2018-12-21T00:43:07.618Z,5.20
2018-12-21T00:48:01.667Z,5.20
2018-12-21T00:52:46.749Z,5.30
2018-12-21T01:02:42.178Z,5.40
2018-12-21T01:07:26.157Z,5.30
2018-12-21T01:12:10.633Z,5.30
2018-12-21T01:16:54.288Z,5.20
2018-12-21T01:21:38.820Z,5.20
2018-12-21T01:26:22.975Z,5.20
2018-12-21T01:31:06.774Z,5.10
2018-12-21T01:35:50.654Z,5.20
2018-12-21T01:40:34.617Z,5.20
2018-12-21T01:45:18.511Z,5.20
2018-12-21T01:50:02.216Z,5.30
2018-12-21T01:54:46.235Z,5.40
2018-12-21T01:59:30.135Z,5.30
2018-12-21T02:04:14.803Z,5.30
2018-12-21T02:09:02.875Z,5.20
2018-12-21T02:13:46.622Z,5.10
2018-12-21T02:18:30.357Z,5.10
2018-12-21T02:23:14.153Z,5.20
2018-12-21T02:27:57.807Z,5.30
2018-12-21T02:32:41.540Z,5.30
2018-12-21T02:37:25.327Z,5.30
2018-12-21T02:42:08.984Z,5.20
2018-12-21T02:46:52.627Z,5.20
2018-12-21T02:51:36.984Z,5.20
2018-12-21T02:56:20.650Z,5.10
2018-12-21T03:01:04.376Z,5.10
2018-12-21T03:05:48.093Z,5.10
2018-12-21T03:10:31.738Z,5.00
2018-12-21T03:15:15.515Z,5.00
2018-12-21T03:19:59.252Z,4.90
2018-12-21T03:24:43.032Z,4.80
2018-12-21T03:29:26.761Z,4.80
2018-12-21T03:34:10.461Z,4.70
2018-12-21T03:38:54.190Z,4.60
2018-12-21T03:43:37.850Z,4.60
2018-12-21T03:48:21.491Z,4.60
2018-12-21T03:53:05.160Z,4.60
2018-12-21T03:57:48.848Z,4.60
2018-12-21T04:02:32.515Z,4.50
2018-12-21T04:07:16.216Z,4.60
2018-12-21T04:11:59.890Z,4.60
2018-12-21T04:16:43.583Z,4.60
2018-12-21T04:21:28.078Z,4.70
2018-12-21T04:26:11.711Z,4.60
2018-12-21T04:30:57.392Z,4.60
2018-12-21T04:35:41.124Z,4.60
2018-12-21T04:40:24.810Z,4.60
2018-12-21T04:45:08.568Z,4.60
2018-12-21T04:49:52.321Z,4.70
2018-12-21T04:54:36.512Z,4.70
2018-12-21T04:59:20.141Z,4.70
2018-12-21T05:04:03.741Z,4.70
2018-12-21T05:08:47.405Z,4.70
2018-12-21T05:13:31.095Z,4.80
2018-12-21T05:18:14.711Z,4.80
2018-12-21T05:23:00.124Z,4.80
2018-12-21T05:32:54.904Z,5.00
2018-12-21T05:37:38.894Z,4.90
2018-12-21T05:42:22.764Z,4.80
2018-12-21T05:47:06.514Z,4.80
2018-12-21T05:52:00.029Z,4.80
2018-12-21T05:56:47.459Z,4.80
2018-12-21T06:01:49.046Z,4.60
2018-12-21T06:06:38.693Z,4.50
2018-12-21T06:11:28.928Z,4.40
2018-12-21T06:16:16.214Z,4.40
2018-12-21T06:21:03.211Z,4.40
2018-12-21T06:25:50.371Z,4.60
2018-12-21T06:30:52.761Z,4.60
2018-12-21T06:35:36.394Z,4.80
2018-12-21T06:40:20.048Z,4.80
2018-12-21T06:45:04.158Z,4.80
2018-12-21T06:49:47.976Z,4.90
2018-12-21T06:54:31.822Z,4.90
2018-12-21T06:59:15.539Z,5.00
2018-12-21T07:03:59.530Z,5.00
2018-12-21T07:08:43.192Z,5.10
2018-12-21T07:13:26.828Z,5.10
2018-12-21T07:18:10.478Z,5.10
2018-12-21T07:22:54.148Z,5.20
2018-12-21T07:27:37.768Z,5.20
2018-12-21T07:32:21.416Z,5.20
2018-12-21T07:37:05.166Z,5.30
2018-12-21T07:41:48.786Z,5.40
2018-12-21T07:46:32.480Z,5.40
2018-12-21T07:51:16.405Z,5.50
2018-12-21T07:56:00.229Z,5.50
2018-12-21T08:00:44.046Z,5.50
2018-12-21T08:05:27.748Z,5.50
2018-12-21T08:10:14.778Z,5.60
2018-12-21T08:14:58.393Z,5.70
2018-12-21T08:19:42.087Z,5.70
2018-12-21T08:24:25.781Z,5.80
2018-12-21T08:29:09.414Z,5.80
2018-12-21T08:33:53.080Z,5.90
2018-12-21T08:38:36.789Z,5.90
2018-12-21T08:43:20.443Z,6.00
2018-12-21T08:48:04.123Z,6.00
2018-12-21T08:52:47.900Z,6.10
2018-12-21T08:57:31.661Z,6.20
2018-12-21T09:02:15.383Z,6.30
2018-12-21T09:06:59.222Z,6.40
2018-12-21T09:11:43.049Z,6.50
2018-12-21T09:16:26.730Z,6.50
2018-12-21T09:21:10.487Z,6.50
2018-12-21T09:25:54.371Z,6.50
2018-12-21T09:30:38.077Z,6.60
2018-12-21T09:35:22.919Z,6.60
2018-12-21T09:40:10.754Z,6.60
2018-12-21T09:44:54.482Z,6.70
2018-12-21T09:49:38.186Z,6.80
2018-12-21T09:54:21.749Z,6.80
2018-12-21T09:59:05.507Z,6.80
2018-12-21T10:03:49.486Z,6.80
2018-12-21T10:08:33.199Z,6.90
2018-12-21T10:13:17.036Z,6.90
2018-12-21T10:18:00.746Z,6.90
2018-12-21T10:22:44.410Z,7.00
2018-12-21T10:27:28.155Z,6.90
2018-12-21T10:42:40.560Z,6.20
2018-12-21T10:47:26.334Z,6.10
2018-12-21T10:52:17.573Z,6.00
2018-12-21T10:57:23.229Z,5.90
2018-12-21T11:02:07.038Z,6.00
2018-12-21T11:06:50.728Z,6.00
2018-12-21T11:11:34.389Z,6.00
2018-12-21T11:16:18.061Z,6.00
2018-12-21T11:21:01.723Z,6.00
2018-12-21T11:25:45.480Z,6.10
2018-12-21T11:30:33.310Z,6.10
2018-12-21T11:35:27.121Z,6.10
2018-12-21T11:40:20.697Z,6.20
2018-12-21T11:45:16.759Z,6.20
2018-12-21T11:50:00.410Z,6.20
2018-12-21T11:54:45.860Z,6.20
2018-12-21T11:59:33.269Z,6.10
2018-12-21T12:04:21.069Z,6.00
2018-12-21T12:09:13.088Z,5.90
2018-12-21T12:13:56.906Z,5.90
2018-12-21T12:18:40.618Z,5.90
2018-12-21T12:23:26.161Z,5.80
2018-12-21T12:28:09.820Z,5.80
2018-12-21T12:32:53.532Z,5.70
2018-12-21T12:37:37.253Z,5.70
2018-12-21T12:42:21.135Z,5.60
2018-12-21T12:47:04.947Z,5.60
2018-12-21T12:51:48.718Z,5.50
2018-12-21T12:56:33.214Z,5.40
2018-12-21T13:01:17.180Z,5.40
2018-12-21T13:06:03.136Z,5.40
2018-12-21T13:10:47.012Z,5.50
2018-12-21T13:15:30.862Z,5.50
2018-12-21T13:20:14.600Z,5.50
2018-12-21T13:30:19.609Z,5.30
2018-12-21T13:35:05.000Z,5.40
2018-12-21T13:39:51.969Z,5.50
2018-12-21T13:44:41.485Z,5.50
2018-12-21T13:49:29.239Z,5.60
2018-12-21T13:54:16.420Z,5.60
2018-12-21T13:59:03.673Z,5.70
2018-12-21T14:03:50.592Z,5.70
2018-12-21T14:08:44.234Z,5.80
2018-12-21T14:13:34.302Z,5.80
2018-12-21T14:18:36.878Z,5.80
2018-12-21T14:28:39.734Z,5.90
2018-12-21T14:33:27.038Z,5.80
2018-12-21T14:38:15.498Z,5.80
2018-12-21T14:43:09.107Z,5.80
2018-12-21T14:47:54.767Z,5.80
2018-12-21T14:52:42.085Z,5.80
2018-12-21T14:57:37.763Z,5.90
2018-12-21T15:02:33.357Z,5.90
2018-12-21T15:07:26.562Z,6.00
2018-12-21T15:12:16.495Z,6.10
2018-12-21T15:17:00.290Z,6.20
2018-12-21T15:21:44.024Z,6.30
2018-12-21T15:26:28.115Z,6.40
2018-12-21T15:36:24.898Z,6.60
2018-12-21T15:41:10.017Z,6.70
2018-12-21T15:45:55.372Z,6.60
2018-12-21T15:55:54.769Z,6.90
2018-12-21T16:00:36.748Z,7.10
2018-12-21T16:05:20.564Z,7.10
2018-12-21T16:10:05.091Z,7.30
2018-12-21T16:14:48.851Z,7.40
2018-12-21T16:19:35.654Z,7.60
2018-12-21T16:24:19.532Z,7.60
2018-12-21T16:29:03.278Z,7.70
2018-12-21T16:33:48.155Z,7.70
2018-12-21T16:38:31.813Z,7.70
2018-12-21T16:43:15.612Z,7.80
2018-12-21T16:47:59.596Z,8.00
2018-12-21T16:57:59.264Z,8.60
2018-12-21T17:02:46.868Z,8.80
2018-12-21T17:12:41.834Z,9.10
2018-12-21T17:17:25.646Z,9.00
2018-12-21T17:22:13.224Z,9.20
2018-12-21T17:32:19.921Z,9.40
2018-12-21T17:37:05.200Z,9.60
2018-12-21T17:52:12.091Z,9.90
2018-12-21T17:56:55.961Z,10.10
2018-12-21T18:01:59.110Z,10.20
2018-12-21T18:06:43.852Z,10.20
2018-12-21T18:11:27.926Z,10.10
2018-12-21T18:16:15.357Z,10.10
2018-12-21T18:20:59.609Z,10.20
2018-12-21T18:31:26.039Z,10.30
2018-12-21T18:36:16.213Z,10.30
2018-12-21T18:41:00.226Z,10.20
2018-12-21T18:45:54.336Z,10.40
2018-12-21T18:50:42.273Z,10.40
2018-12-21T18:55:32.396Z,10.30
2018-12-21T19:11:00.333Z,10.10
2018-12-21T19:15:48.501Z,10.10
2018-12-21T19:20:42.215Z,10.10
2018-12-21T19:25:31.090Z,10.00
2018-12-21T19:35:33.309Z,10.10
2018-12-21T19:40:23.503Z,10.00
2018-12-21T19:45:30.229Z,10.00
2018-12-21T19:50:36.350Z,10.00
2018-12-21T20:06:03.013Z,10.20
2018-12-21T20:26:39.367Z,10.70
2018-12-21T20:31:29.806Z,10.80
2018-12-21T20:41:25.582Z,10.50
2018-12-21T20:46:18.994Z,10.50
2018-12-21T20:51:02.929Z,10.60
2018-12-21T20:56:08.855Z,10.60
2018-12-21T21:00:52.783Z,10.60
2018-12-21T21:05:37.376Z,10.70
2018-12-21T21:10:21.298Z,10.60
2018-12-21T21:15:06.495Z,10.50
2018-12-21T21:20:02.342Z,10.20
2018-12-21T21:40:20.479Z,10.10
2018-12-21T21:45:15.223Z,9.90
2018-12-21T21:49:59.365Z,9.80
2018-12-21T21:54:43.381Z,9.60
2018-12-21T21:59:27.407Z,9.50
2018-12-21T22:14:42.819Z,9.80
2018-12-21T22:19:28.980Z,9.90
2018-12-21T22:24:13.237Z,9.90
2018-12-21T22:28:57.459Z,10.10
2018-12-21T22:33:56.436Z,10.10
2018-12-21T22:39:03.830Z,10.00
2018-12-21T22:43:54.667Z,9.90
2018-12-21T22:48:47.652Z,9.80
2018-12-21T23:04:01.219Z,9.60
2018-12-21T23:08:51.096Z,9.70
2018-12-21T23:18:51.053Z,9.80
2018-12-21T23:28:46.837Z,9.70
2018-12-21T23:33:42.768Z,9.80
2018-12-21T23:49:01.012Z,9.90
